createdAt,value
2023-01-27T00:01:00.083Z,101486.03
2023-01-27T00:03:26.712Z,101480.84
2023-01-27T00:05:53.703Z,101473.34
2023-01-27T00:08:20.891Z,101475.75
2023-01-27T00:11:07.454Z,101467.06
2023-01-27T00:13:35.183Z,101483.47
2023-01-27T00:16:05.127Z,101485.06
2023-01-27T00:18:31.860Z,101478.97
2023-01-27T00:21:17.255Z,101475.00
2023-01-27T00:24:02.619Z,101481.03
2023-01-27T00:26:29.594Z,101484.59
2023-01-27T00:28:59.620Z,101488.06
2023-01-27T00:31:44.907Z,101477.78
2023-01-27T00:34:11.661Z,101478.63
2023-01-27T00:36:40.374Z,101480.56
2023-01-27T00:39:08.397Z,101487.84
2023-01-27T00:41:35.230Z,101485.28
2023-01-27T00:44:03.954Z,101479.47
2023-01-27T00:46:30.613Z,101478.63
2023-01-27T00:48:58.047Z,101488.91
2023-01-27T00:51:24.865Z,101485.28
2023-01-27T00:53:51.488Z,101486.13
2023-01-27T00:56:18.591Z,101489.78
2023-01-27T00:58:45.200Z,101486.97
2023-01-27T01:01:14.955Z,101492.09
2023-01-27T01:03:45.383Z,101492.31
2023-01-27T01:06:16.770Z,101496.56
2023-01-27T01:08:44.264Z,101487.00
2023-01-27T01:11:14.166Z,101489.66
2023-01-27T01:13:41.858Z,101497.28
2023-01-27T01:16:11.362Z,101498.22
2023-01-27T01:18:39.115Z,101491.31
2023-01-27T01:21:06.918Z,101493.72
2023-01-27T01:23:35.105Z,101487.78
2023-01-27T01:26:01.759Z,101493.97
2023-01-27T01:28:28.362Z,101492.44
2023-01-27T01:30:55.038Z,101496.69
2023-01-27T01:33:21.681Z,101495.91
2023-01-27T01:35:48.339Z,101496.75
2023-01-27T01:38:14.939Z,101496.69
2023-01-27T01:40:44.669Z,101502.00
2023-01-27T01:43:17.474Z,101493.41
2023-01-27T01:45:53.300Z,101488.28
2023-01-27T01:48:36.513Z,101495.03
2023-01-27T01:51:22.947Z,101491.56
2023-01-27T01:54:00.923Z,101500.97
2023-01-27T01:56:33.469Z,101502.00
2023-01-27T01:59:03.107Z,101502.00
2023-01-27T02:01:29.825Z,101505.63
2023-01-27T02:03:58.431Z,101508.31
2023-01-27T02:06:25.448Z,101496.19
2023-01-27T02:08:52.567Z,101495.38
2023-01-27T02:11:19.262Z,101499.72
2023-01-27T02:13:45.854Z,101500.72
2023-01-27T02:16:13.293Z,101502.44
2023-01-27T02:18:40.629Z,101509.38
2023-01-27T02:21:07.753Z,101505.16
2023-01-27T02:23:52.746Z,101504.34
2023-01-27T02:26:24.866Z,101503.50
2023-01-27T02:28:56.647Z,101507.84
2023-01-27T02:31:23.631Z,101507.91
2023-01-27T02:33:51.555Z,101505.25
2023-01-27T02:36:18.426Z,101501.84
2023-01-27T02:38:49.510Z,101507.97
2023-01-27T02:41:21.561Z,101503.94
2023-01-27T02:43:50.152Z,101522.19
2023-01-27T02:46:16.816Z,101518.88
2023-01-27T02:48:43.530Z,101516.91
2023-01-27T02:51:10.577Z,101526.66
2023-01-27T02:53:38.828Z,101523.81
2023-01-27T02:56:05.954Z,101515.22
2023-01-27T02:58:32.574Z,101517.06
2023-01-27T03:00:59.277Z,101517.97
2023-01-27T03:03:25.846Z,101524.59
2023-01-27T03:05:52.425Z,101527.16
2023-01-27T03:08:19.272Z,101532.34
2023-01-27T03:10:50.407Z,101519.41
2023-01-27T03:13:17.009Z,101522.94
2023-01-27T03:16:02.379Z,101516.16
2023-01-27T03:18:29.021Z,101516.00
2023-01-27T03:21:00.873Z,101524.78
2023-01-27T03:23:27.943Z,101530.03
2023-01-27T03:25:54.557Z,101522.34
2023-01-27T03:28:21.143Z,101521.75
2023-01-27T03:30:47.877Z,101532.41
2023-01-27T03:33:14.533Z,101530.31
2023-01-27T03:35:48.468Z,101532.69
2023-01-27T03:38:34.845Z,101526.84
2023-01-27T03:41:23.133Z,101529.31
2023-01-27T03:44:08.470Z,101530.19
2023-01-27T03:46:35.146Z,101527.38
2023-01-27T03:49:01.829Z,101529.22
2023-01-27T03:51:28.531Z,101533.47
2023-01-27T03:53:55.165Z,101524.28
2023-01-27T03:56:22.644Z,101530.13
2023-01-27T03:58:50.647Z,101534.84
2023-01-27T04:01:22.235Z,101528.72
2023-01-27T04:04:08.153Z,101526.34
2023-01-27T04:06:56.459Z,101530.47
2023-01-27T04:09:34.654Z,101534.84
2023-01-27T04:12:04.460Z,101532.22
2023-01-27T04:14:37.885Z,101540.34
2023-01-27T04:17:14.064Z,101537.06
2023-01-27T04:19:40.776Z,101536.22
2023-01-27T04:22:08.429Z,101537.56
2023-01-27T04:24:35.295Z,101533.28
2023-01-27T04:27:13.746Z,101535.66
2023-01-27T04:29:41.555Z,101541.25
2023-01-27T04:32:10.089Z,101536.22
2023-01-27T04:34:37.370Z,101546.53
2023-01-27T04:37:05.660Z,101544.75
2023-01-27T04:39:32.613Z,101544.75
2023-01-27T04:41:59.365Z,101543.28
2023-01-27T04:44:26.437Z,101545.09
2023-01-27T04:46:54.807Z,101545.78
2023-01-27T04:49:22.333Z,101552.41
2023-01-27T04:51:49.006Z,101542.16
2023-01-27T04:54:15.656Z,101550.88
2023-01-27T04:56:55.060Z,101551.25
2023-01-27T04:59:21.619Z,101557.56
2023-01-27T05:01:48.325Z,101561.09
2023-01-27T05:04:14.913Z,101559.22
2023-01-27T05:06:41.541Z,101563.31
2023-01-27T05:09:08.165Z,101564.63
2023-01-27T05:11:34.788Z,101559.09
2023-01-27T05:14:01.567Z,101567.06
2023-01-27T05:16:28.253Z,101561.75
2023-01-27T05:18:56.230Z,101572.00
2023-01-27T05:21:25.652Z,101570.66
2023-01-27T05:23:52.297Z,101578.25
2023-01-27T05:26:21.293Z,101576.03
2023-01-27T05:28:48.848Z,101570.88
2023-01-27T05:31:21.380Z,101577.00
2023-01-27T05:33:50.422Z,101587.31
2023-01-27T05:36:18.430Z,101589.22
2023-01-27T05:38:45.397Z,101584.84
2023-01-27T05:41:13.321Z,101582.19
2023-01-27T05:43:41.692Z,101580.66
2023-01-27T05:46:13.435Z,101588.13
2023-01-27T05:48:42.926Z,101588.84
2023-01-27T05:51:10.387Z,101593.25
2023-01-27T05:53:37.725Z,101600.03
2023-01-27T05:56:05.104Z,101607.06
2023-01-27T05:58:31.941Z,101605.69
2023-01-27T06:01:07.850Z,101609.25
2023-01-27T06:03:34.518Z,101610.19
2023-01-27T06:06:01.142Z,101607.63
2023-01-27T06:08:27.739Z,101606.69
2023-01-27T06:10:54.491Z,101616.75
2023-01-27T06:13:22.484Z,101616.88
2023-01-27T06:15:49.231Z,101619.53
2023-01-27T06:18:17.237Z,101605.94
2023-01-27T06:20:44.793Z,101615.22
2023-01-27T06:23:12.791Z,101604.94
2023-01-27T06:25:41.164Z,101620.94
2023-01-27T06:28:10.789Z,101631.13
2023-01-27T06:30:40.004Z,101615.47
2023-01-27T06:33:07.469Z,101628.22
2023-01-27T06:35:35.608Z,101626.50
2023-01-27T06:38:03.523Z,101638.59
2023-01-27T06:40:31.832Z,101637.41
2023-01-27T06:42:58.801Z,101637.13
2023-01-27T06:45:25.756Z,101647.00
2023-01-27T06:48:00.135Z,101652.44
2023-01-27T06:50:28.375Z,101658.66
2023-01-27T06:53:02.859Z,101657.31
2023-01-27T06:55:29.621Z,101650.69
2023-01-27T06:57:56.388Z,101645.38
2023-01-27T07:00:23.237Z,101657.81
2023-01-27T07:02:50.738Z,101664.66
2023-01-27T07:05:17.498Z,101660.34
2023-01-27T07:07:44.145Z,101659.44
2023-01-27T07:10:11.488Z,101668.16
2023-01-27T07:12:39.651Z,101665.84
2023-01-27T07:15:07.698Z,101665.84
2023-01-27T07:17:34.665Z,101670.16
2023-01-27T07:20:02.009Z,101667.84
2023-01-27T07:22:28.707Z,101670.91
2023-01-27T07:24:58.295Z,101686.50
2023-01-27T07:27:25.320Z,101676.88
2023-01-27T07:29:52.171Z,101678.75
2023-01-27T07:32:18.816Z,101683.03
2023-01-27T07:34:45.430Z,101688.88
2023-01-27T07:37:12.372Z,101687.31
2023-01-27T07:39:39.117Z,101685.91
2023-01-27T07:42:06.602Z,101686.78
2023-01-27T07:44:33.348Z,101688.97
2023-01-27T07:47:00.166Z,101689.56
2023-01-27T07:49:27.607Z,101691.28
2023-01-27T07:51:54.795Z,101688.19
2023-01-27T07:54:21.511Z,101685.91
2023-01-27T07:56:48.148Z,101700.63
2023-01-27T07:59:14.886Z,101701.56
2023-01-27T08:01:41.941Z,101698.94
2023-01-27T08:04:08.831Z,101699.78
2023-01-27T08:06:38.036Z,101695.75
2023-01-27T08:09:04.658Z,101707.28
2023-01-27T08:11:31.549Z,101698.63
2023-01-27T08:13:58.211Z,101700.56
2023-01-27T08:16:24.902Z,101705.03
2023-01-27T08:18:53.588Z,101702.78
2023-01-27T08:21:20.443Z,101718.50
2023-01-27T08:23:47.173Z,101709.84
2023-01-27T08:26:14.101Z,101711.81
2023-01-27T08:28:40.746Z,101721.38
2023-01-27T08:31:13.007Z,101723.03
2023-01-27T08:33:40.746Z,101728.38
2023-01-27T08:36:10.623Z,101718.06
2023-01-27T08:38:37.765Z,101731.16
2023-01-27T08:41:06.242Z,101725.13
2023-01-27T08:43:32.879Z,101730.25
2023-01-27T08:46:00.770Z,101725.78
2023-01-27T08:48:31.817Z,101735.38
2023-01-27T08:50:59.987Z,101737.25
2023-01-27T08:53:28.231Z,101734.69
2023-01-27T08:55:59.822Z,101736.31
2023-01-27T08:58:26.551Z,101737.00
2023-01-27T09:00:53.277Z,101748.09
2023-01-27T09:03:20.084Z,101749.22
2023-01-27T09:05:47.975Z,101752.88
2023-01-27T09:08:15.961Z,101752.75
2023-01-27T09:10:42.685Z,101758.19
2023-01-27T09:13:09.489Z,101757.91
2023-01-27T09:15:36.757Z,101761.44
2023-01-27T09:18:06.639Z,101762.38
2023-01-27T09:20:34.538Z,101770.84
2023-01-27T09:23:02.719Z,101761.53
2023-01-27T09:25:29.431Z,101758.09
2023-01-27T09:27:57.029Z,101766.50
2023-01-27T09:30:24.688Z,101763.69
2023-01-27T09:32:51.501Z,101763.94
2023-01-27T09:35:18.501Z,101778.78
2023-01-27T09:37:59.014Z,101774.28
2023-01-27T09:40:31.711Z,101782.41
2023-01-27T09:43:10.433Z,101771.72
2023-01-27T09:45:53.754Z,101775.34
2023-01-27T09:48:51.708Z,101783.00
2023-01-27T09:51:36.631Z,101785.69
2023-01-27T09:54:24.113Z,101790.84
2023-01-27T09:57:03.383Z,101792.53
2023-01-27T09:59:42.062Z,101795.28
2023-01-27T10:02:53.910Z,101794.94
2023-01-27T10:05:40.392Z,101796.13
2023-01-27T10:08:13.161Z,101806.63
2023-01-27T10:10:46.260Z,101807.50
2023-01-27T10:13:31.500Z,101797.25
2023-01-27T10:16:19.582Z,101798.31
2023-01-27T10:19:00.640Z,101801.53
2023-01-27T10:22:00.138Z,101805.69
2023-01-27T10:25:01.446Z,101794.72
2023-01-27T10:27:33.372Z,101796.94
2023-01-27T10:30:16.790Z,101794.69
2023-01-27T10:32:55.712Z,101797.31
2023-01-27T10:35:24.748Z,101803.25
2023-01-27T10:38:01.573Z,101802.59
2023-01-27T10:40:33.478Z,101800.69
2023-01-27T10:43:10.879Z,101803.25
2023-01-27T10:45:41.427Z,101805.09
2023-01-27T10:48:38.715Z,101801.88
2023-01-27T10:51:13.257Z,101800.59
2023-01-27T10:53:51.008Z,101800.91
2023-01-27T10:56:32.563Z,101791.31
2023-01-27T10:59:14.916Z,101800.81
2023-01-27T11:01:46.916Z,101799.75
2023-01-27T11:04:35.085Z,101807.75
2023-01-27T11:07:01.783Z,101802.34
2023-01-27T11:09:35.005Z,101805.69
2023-01-27T11:12:05.777Z,101804.31
2023-01-27T11:14:41.823Z,101804.59
2023-01-27T11:17:40.395Z,101794.03
2023-01-27T11:20:30.651Z,101807.81
2023-01-27T11:23:04.490Z,101803.31
2023-01-27T11:25:52.860Z,101813.25
2023-01-27T11:28:37.525Z,101814.59
2023-01-27T11:31:26.709Z,101815.66
2023-01-27T11:34:30.978Z,101827.53
2023-01-27T11:37:01.247Z,101832.88
2023-01-27T11:39:31.331Z,101823.78
2023-01-27T11:41:57.962Z,101822.09
2023-01-27T11:44:27.767Z,101821.53
2023-01-27T11:46:55.562Z,101827.78
2023-01-27T11:49:26.715Z,101826.13
2023-01-27T11:52:05.623Z,101820.19
2023-01-27T11:54:42.198Z,101817.88
2023-01-27T11:57:59.606Z,101820.44
2023-01-27T12:00:31.510Z,101820.38
2023-01-27T12:03:06.829Z,101815.41
2023-01-27T12:05:42.994Z,101811.13
2023-01-27T12:08:11.802Z,101804.13
2023-01-27T12:10:43.744Z,101817.00
2023-01-27T12:13:17.630Z,101812.41
2023-01-27T12:16:02.413Z,101803.75
2023-01-27T12:18:32.640Z,101804.72
2023-01-27T12:21:01.054Z,101800.59
2023-01-27T12:23:30.957Z,101804.72
2023-01-27T12:25:59.900Z,101795.22
2023-01-27T12:28:31.872Z,101795.88
2023-01-27T12:31:08.918Z,101789.13
2023-01-27T12:33:40.976Z,101792.84
2023-01-27T12:36:14.793Z,101795.28
2023-01-27T12:38:50.571Z,101797.50
2023-01-27T12:41:24.034Z,101783.53
2023-01-27T12:44:09.988Z,101789.66
2023-01-27T12:46:40.009Z,101780.84
2023-01-27T12:49:12.182Z,101782.09
2023-01-27T12:51:41.745Z,101792.41
2023-01-27T12:54:24.591Z,101783.91
2023-01-27T12:56:53.224Z,101787.44
2023-01-27T12:59:21.813Z,101783.31
2023-01-27T13:02:02.010Z,101785.53
2023-01-27T13:04:29.291Z,101778.56
2023-01-27T13:07:01.838Z,101785.66
2023-01-27T13:09:38.340Z,101777.25
2023-01-27T13:12:16.900Z,101772.00
2023-01-27T13:14:43.906Z,101781.66
2023-01-27T13:17:53.192Z,101776.13
2023-01-27T13:20:25.212Z,101779.06
2023-01-27T13:23:00.234Z,101786.16
2023-01-27T13:25:33.204Z,101792.91
2023-01-27T13:28:01.021Z,101779.59
2023-01-27T13:30:32.493Z,101791.72
2023-01-27T13:33:04.301Z,101782.22
2023-01-27T13:35:35.404Z,101793.66
2023-01-27T13:38:33.120Z,101794.81
2023-01-27T13:41:07.006Z,101797.63
2023-01-27T13:43:40.490Z,101806.56
2023-01-27T13:46:17.417Z,101801.19
2023-01-27T13:48:51.165Z,101797.78
2023-01-27T13:51:19.940Z,101806.31
2023-01-27T13:53:47.741Z,101803.91
2023-01-27T13:56:20.329Z,101800.44
2023-01-27T13:59:14.635Z,101814.47
2023-01-27T14:01:55.734Z,101817.84
2023-01-27T14:04:44.351Z,101808.13
2023-01-27T14:07:29.953Z,101809.13
2023-01-27T14:10:23.859Z,101807.44
2023-01-27T14:13:21.421Z,101808.34
2023-01-27T14:15:54.835Z,101813.66
2023-01-27T14:18:25.136Z,101812.81
2023-01-27T14:21:10.836Z,101824.22
2023-01-27T14:23:49.564Z,101812.63
2023-01-27T14:26:47.332Z,101813.84
2023-01-27T14:29:28.268Z,101817.13
2023-01-27T14:32:20.322Z,101812.88
2023-01-27T14:35:09.884Z,101820.47
2023-01-27T14:37:56.311Z,101826.84
2023-01-27T14:40:40.079Z,101821.56
2023-01-27T14:43:25.708Z,101825.69
2023-01-27T14:46:13.442Z,101825.50
2023-01-27T14:48:53.133Z,101830.50
2023-01-27T14:51:29.324Z,101823.38
2023-01-27T14:53:55.888Z,101827.66
2023-01-27T14:56:37.779Z,101827.84
2023-01-27T14:59:24.527Z,101834.41
2023-01-27T15:02:40.808Z,101822.81
2023-01-27T15:05:16.582Z,101836.13
2023-01-27T15:07:50.400Z,101843.06
2023-01-27T15:10:23.014Z,101847.16
2023-01-27T15:13:20.515Z,101848.50
2023-01-27T15:16:05.882Z,101858.59
2023-01-27T15:18:50.850Z,101859.50
2023-01-27T15:21:23.390Z,101862.25
2023-01-27T15:23:56.206Z,101864.25
2023-01-27T15:26:25.144Z,101867.41
2023-01-27T15:28:52.063Z,101863.97
2023-01-27T15:31:25.436Z,101877.47
2023-01-27T15:34:15.162Z,101867.13
2023-01-27T15:37:22.266Z,101869.44
2023-01-27T15:40:04.951Z,101880.22
2023-01-27T15:42:51.384Z,101882.00
2023-01-27T15:45:30.408Z,101885.22
2023-01-27T15:47:59.627Z,101888.84
2023-01-27T15:50:29.706Z,101890.59
2023-01-27T15:53:02.557Z,101886.91
2023-01-27T15:55:33.279Z,101894.28
2023-01-27T15:58:35.808Z,101897.56
2023-01-27T16:01:05.064Z,101904.53
2023-01-27T16:03:32.949Z,101900.53
2023-01-27T16:06:09.013Z,101903.03
2023-01-27T16:08:42.287Z,101908.41
2023-01-27T16:11:42.270Z,101904.28
2023-01-27T16:14:11.809Z,101909.81
2023-01-27T16:16:45.618Z,101906.78
2023-01-27T16:19:22.935Z,101909.44
2023-01-27T16:22:11.627Z,101913.25
2023-01-27T16:24:50.586Z,101910.19
2023-01-27T16:27:41.022Z,101910.06
2023-01-27T16:30:28.795Z,101911.00
2023-01-27T16:33:04.302Z,101914.97
2023-01-27T16:35:42.649Z,101930.00
2023-01-27T16:38:34.044Z,101926.00
2023-01-27T16:41:03.848Z,101928.78
2023-01-27T16:43:43.139Z,101936.16
2023-01-27T16:46:25.582Z,101933.44
2023-01-27T16:48:52.703Z,101936.63
2023-01-27T16:51:27.676Z,101934.31
2023-01-27T16:53:56.888Z,101937.28
2023-01-27T16:56:33.671Z,101938.34
2023-01-27T16:59:09.067Z,101930.91
2023-01-27T17:01:45.757Z,101944.34
2023-01-27T17:04:26.073Z,101941.16
2023-01-27T17:06:56.589Z,101941.47
2023-01-27T17:09:26.681Z,101942.50
2023-01-27T17:11:54.063Z,101955.50
2023-01-27T17:14:31.280Z,101957.56
2023-01-27T17:17:01.419Z,101957.19
2023-01-27T17:19:31.322Z,101962.53
2023-01-27T17:22:03.103Z,101959.66
2023-01-27T17:24:33.754Z,101964.03
2023-01-27T17:27:07.580Z,101962.25
2023-01-27T17:29:39.863Z,101963.81
2023-01-27T17:32:25.064Z,101961.28
2023-01-27T17:34:59.976Z,101962.94
2023-01-27T17:37:30.188Z,101966.25
2023-01-27T17:40:03.732Z,101969.59
2023-01-27T17:42:33.865Z,101966.78
2023-01-27T17:45:29.793Z,101968.84
2023-01-27T17:48:00.590Z,101973.72
2023-01-27T17:50:34.305Z,101978.91
2023-01-27T17:53:00.999Z,101975.31
2023-01-27T17:55:31.005Z,101977.75
2023-01-27T17:58:03.907Z,101975.94
2023-01-27T18:00:33.649Z,101969.66
2023-01-27T18:03:03.352Z,101983.50
2023-01-27T18:05:32.599Z,101977.00
2023-01-27T18:07:59.713Z,101983.38
2023-01-27T18:10:35.411Z,101986.41
2023-01-27T18:13:18.370Z,101985.59
2023-01-27T18:15:57.523Z,101985.28
2023-01-27T18:18:26.275Z,101989.13
2023-01-27T18:20:53.815Z,101992.09
2023-01-27T18:23:25.889Z,101993.25
2023-01-27T18:26:10.169Z,101989.88
2023-01-27T18:28:37.847Z,102000.19
2023-01-27T18:31:05.344Z,102007.66
2023-01-27T18:34:01.032Z,102002.22
2023-01-27T18:36:35.742Z,102003.72
2023-01-27T18:39:04.765Z,102011.22
2023-01-27T18:41:38.133Z,102021.91
2023-01-27T18:44:04.932Z,102013.28
2023-01-27T18:46:31.720Z,102025.41
2023-01-27T18:48:59.736Z,102032.09
2023-01-27T18:51:26.340Z,102035.44
2023-01-27T18:53:52.947Z,102032.69
2023-01-27T18:56:19.564Z,102029.63
2023-01-27T18:58:46.153Z,102033.09
2023-01-27T19:01:19.675Z,102033.66
2023-01-27T19:03:46.275Z,102041.97
2023-01-27T19:06:19.029Z,102032.78
2023-01-27T19:08:46.013Z,102031.00
2023-01-27T19:11:15.964Z,102038.59
2023-01-27T19:13:43.678Z,102038.19
2023-01-27T19:16:15.245Z,102041.56
2023-01-27T19:18:42.226Z,102045.16
2023-01-27T19:21:15.926Z,102045.84
2023-01-27T19:23:45.933Z,102055.91
2023-01-27T19:26:19.315Z,102049.56
2023-01-27T19:28:49.207Z,102048.94
2023-01-27T19:31:16.032Z,102052.09
2023-01-27T19:33:44.854Z,102056.38
2023-01-27T19:36:20.806Z,102045.69
2023-01-27T19:38:48.251Z,102046.59
2023-01-27T19:41:15.205Z,102049.34
2023-01-27T19:43:42.081Z,102054.00
2023-01-27T19:46:16.345Z,102051.13
2023-01-27T19:48:43.120Z,102048.41
2023-01-27T19:51:11.647Z,102051.13
2023-01-27T19:53:38.298Z,102053.28
2023-01-27T19:56:11.853Z,102063.63
2023-01-27T19:58:38.432Z,102062.41
2023-01-27T20:01:05.208Z,102056.50
2023-01-27T20:03:31.981Z,102057.56
2023-01-27T20:05:58.573Z,102058.13
2023-01-27T20:08:25.230Z,102057.22
2023-01-27T20:10:52.157Z,102050.00
2023-01-27T20:13:19.855Z,102061.31
2023-01-27T20:15:46.953Z,102059.34
2023-01-27T20:18:15.471Z,102055.31
2023-01-27T20:20:44.256Z,102062.13
2023-01-27T20:23:17.582Z,102060.31
2023-01-27T20:25:44.244Z,102065.41
2023-01-27T20:28:12.326Z,102062.44
2023-01-27T20:30:39.079Z,102068.56
2023-01-27T20:33:05.851Z,102063.78
2023-01-27T20:35:32.592Z,102063.63
2023-01-27T20:37:59.237Z,102067.38
2023-01-27T20:40:28.813Z,102069.81
2023-01-27T20:42:55.648Z,102069.00
2023-01-27T20:45:22.911Z,102059.31
2023-01-27T20:47:51.326Z,102064.22
2023-01-27T20:50:18.696Z,102068.31
2023-01-27T20:52:45.397Z,102076.53
2023-01-27T20:55:14.206Z,102077.03
2023-01-27T20:57:41.190Z,102076.56
2023-01-27T21:00:11.015Z,102071.56
2023-01-27T21:02:37.633Z,102074.84
2023-01-27T21:05:04.557Z,102070.13
2023-01-27T21:07:31.227Z,102071.75
2023-01-27T21:09:59.080Z,102076.22
2023-01-27T21:12:27.298Z,102066.22
2023-01-27T21:14:53.960Z,102066.06
2023-01-27T21:17:20.610Z,102064.47
2023-01-27T21:19:47.196Z,102067.03
2023-01-27T21:22:13.870Z,102055.63
2023-01-27T21:24:40.612Z,102067.25
2023-01-27T21:27:07.201Z,102072.06
2023-01-27T21:29:33.919Z,102070.09
2023-01-27T21:32:09.774Z,102075.16
2023-01-27T21:34:36.441Z,102074.81
2023-01-27T21:37:03.209Z,102070.09
2023-01-27T21:39:30.009Z,102071.09
2023-01-27T21:41:56.627Z,102069.38
2023-01-27T21:44:44.274Z,102072.88
2023-01-27T21:47:13.555Z,102065.34
2023-01-27T21:50:00.147Z,102065.34
2023-01-27T21:52:47.459Z,102071.75
2023-01-27T21:55:16.427Z,102069.47
2023-01-27T21:57:45.756Z,102069.53
2023-01-27T22:00:15.053Z,102072.50
2023-01-27T22:02:42.447Z,102067.03
2023-01-27T22:05:10.525Z,102071.31
2023-01-27T22:07:41.667Z,102067.47
2023-01-27T22:10:13.884Z,102067.09
2023-01-27T22:12:40.509Z,102063.28
2023-01-27T22:15:08.504Z,102066.09
2023-01-27T22:17:35.224Z,102066.19
2023-01-27T22:20:02.736Z,102069.41
2023-01-27T22:22:29.516Z,102065.84
2023-01-27T22:24:56.090Z,102063.44
2023-01-27T22:27:22.853Z,102063.88
2023-01-27T22:29:49.643Z,102061.78
2023-01-27T22:32:16.327Z,102065.78
2023-01-27T22:34:44.407Z,102055.22
2023-01-27T22:37:11.016Z,102068.19
2023-01-27T22:39:38.210Z,102068.66
2023-01-27T22:42:05.005Z,102057.72
2023-01-27T22:44:31.701Z,102065.50
2023-01-27T22:46:58.345Z,102061.69
2023-01-27T22:49:24.993Z,102059.97
2023-01-27T22:51:51.643Z,102054.25
2023-01-27T22:54:18.277Z,102046.25
2023-01-27T22:56:44.962Z,102055.72
2023-01-27T22:59:13.180Z,102051.44
2023-01-27T23:01:40.166Z,102046.09
2023-01-27T23:04:14.237Z,102046.25
2023-01-27T23:06:40.873Z,102043.03
2023-01-27T23:09:07.484Z,102032.91
2023-01-27T23:11:34.072Z,102034.06
2023-01-27T23:14:01.496Z,102030.03
2023-01-27T23:16:28.273Z,102029.78
2023-01-27T23:18:54.891Z,102034.47
2023-01-27T23:21:21.486Z,102032.41
2023-01-27T23:23:50.350Z,102028.41
2023-01-27T23:26:17.210Z,102032.63
2023-01-27T23:28:43.791Z,102027.34
2023-01-27T23:31:12.455Z,102033.31
2023-01-27T23:33:40.711Z,102027.59
2023-01-27T23:36:08.591Z,102038.09
2023-01-27T23:38:38.726Z,102031.22
2023-01-27T23:41:18.390Z,102042.88
2023-01-27T23:43:50.525Z,102026.63
2023-01-27T23:46:17.194Z,102034.38
2023-01-27T23:48:43.838Z,102028.72
2023-01-27T23:51:13.285Z,102028.06
2023-01-27T23:53:39.880Z,102037.22
2023-01-27T23:56:07.299Z,102037.06
2023-01-27T23:58:34.240Z,102038.28
